Time;durP1;ratioP1;P1;durP2;ratioP2;P2;SDS_P1;SDS_P2;PMS_P1;PMS_P2;Temp;Humidity;BMP_temperature;BMP_pressure;BME280_temperature;BME280_humidity;BME280_pressure;Samples;Min_cycle;Max_cycle;Signal;HPM_P1;HPM_P2
2021/03/26 00:00:17;;;;;;;15.35;10.05;;;102.50;2124.80;;;;;;5068144;28;20036;-81
2021/03/26 00:02:43;;;;;;;17.85;11.45;;;102.50;2150.40;;;;;;5093644;28;20020;-80
2021/03/26 00:05:13;;;;;;;21.52;14.00;;;102.50;2150.40;;;;;;5089581;28;20036;-72
2021/03/26 00:07:39;;;;;;;24.67;14.35;;;102.50;2124.80;;;;;;5075413;28;20089;-86
2021/03/26 00:10:13;;;;;;;23.42;15.90;;;102.50;2124.80;;;;;;5088585;28;20111;-76
2021/03/26 00:12:40;;;;;;;21.95;14.52;;;102.50;2099.20;;;;;;5089673;28;20504;-69
2021/03/26 00:15:07;;;;;;;21.08;13.93;;;102.50;2099.20;;;;;;5092360;28;20024;-71
2021/03/26 00:17:33;;;;;;;20.92;13.55;;;102.40;2124.80;;;;;;5092554;28;20044;-84
2021/03/26 00:19:59;;;;;;;18.77;11.93;;;102.40;2124.80;;;;;;5091397;28;20107;-76
2021/03/26 00:22:26;;;;;;;19.42;11.90;;;102.40;2124.80;;;;;;5091070;28;20077;-74
2021/03/26 00:24:52;;;;;;;17.58;11.45;;;102.40;2124.80;;;;;;5090534;28;20051;-82
2021/03/26 00:27:18;;;;;;;17.05;11.45;;;102.40;2176.00;;;;;;5163713;23;20087;-84
2021/03/26 00:29:44;;;;;;;17.05;10.38;;;77.70;2176.00;;;;;;5051792;28;20041;-83
2021/03/26 00:32:10;;;;;;;15.27;10.10;;;102.60;2176.00;;;;;;5051932;28;20025;-82
2021/03/26 00:34:36;;;;;;;15.13;10.65;;;102.40;2150.40;;;;;;5047567;28;20470;-83
2021/03/26 00:37:02;;;;;;;15.65;10.45;;;102.40;2150.40;;;;;;5051981;28;20036;-75
2021/03/26 00:39:28;;;;;;;16.80;10.38;;;77.70;2150.40;;;;;;5052799;28;20530;-69
2021/03/26 00:41:54;;;;;;;18.08;11.02;;;77.70;2150.40;;;;;;5052453;28;20108;-82
2021/03/26 00:44:19;;;;;;;16.20;11.15;;;77.70;2150.40;;;;;;5053385;28;20025;-69
2021/03/26 00:46:45;;;;;;;15.20;10.88;;;77.70;2124.80;;;;;;5052484;28;21869;-81
2021/03/26 00:49:12;;;;;;;15.75;11.43;;;77.70;2124.80;;;;;;5050309;28;20037;-82
2021/03/26 00:51:38;;;;;;;21.90;11.27;;;77.70;2124.80;;;;;;5038519;28;20395;-84
2021/03/26 00:54:05;;;;;;;14.15;10.38;;;77.70;2176.00;;;;;;5054514;28;20471;-82
2021/03/26 00:56:31;;;;;;;17.85;10.38;;;102.40;2150.40;;;;;;5045395;28;20069;-82
2021/03/26 00:58:56;;;;;;;17.48;11.05;;;102.40;2150.40;;;;;;5048412;28;20577;-78
2021/03/26 01:01:23;;;;;;;15.00;10.15;;;102.40;2150.40;;;;;;5054930;28;20028;-70
2021/03/26 01:03:48;;;;;;;15.70;10.57;;;77.70;2176.00;;;;;;5053878;28;20268;-81
2021/03/26 01:06:16;;;;;;;16.10;10.77;;;77.70;2150.40;;;;;;5037286;28;20025;-80
2021/03/26 01:08:42;;;;;;;15.88;10.10;;;77.70;2150.40;;;;;;5055254;28;20029;-85
2021/03/26 01:11:29;;;;;;;15.88;10.77;;;77.70;2150.40;;;;;;5064083;28;20036;-77
2021/03/26 01:13:56;;;;;;;15.30;10.15;;;77.70;2150.40;;;;;;5055246;28;20025;-71
2021/03/26 01:16:23;;;;;;;17.27;9.88;;;77.70;2176.00;;;;;;5058579;28;20049;-86
2021/03/26 01:18:49;;;;;;;16.52;10.25;;;77.70;2176.00;;;;;;5060591;28;20021;-73
2021/03/26 01:21:22;;;;;;;15.48;10.65;;;77.70;2150.40;;;;;;5060548;28;20080;-83
2021/03/26 01:23:48;;;;;;;19.47;10.77;;;77.70;2150.40;;;;;;5056016;28;20028;-69
2021/03/26 01:26:14;;;;;;;15.68;9.90;;;77.70;2150.40;;;;;;5054977;28;20400;-87
2021/03/26 01:28:40;;;;;;;16.08;11.00;;;102.40;2124.80;;;;;;5071591;28;20044;-70
2021/03/26 01:31:06;;;;;;;15.15;10.45;;;102.40;2099.20;;;;;;5075369;28;20035;-70
2021/03/26 01:33:32;;;;;;;18.30;11.00;;;102.40;2099.20;;;;;;5070203;28;20030;-82
2021/03/26 01:35:58;;;;;;;14.77;10.30;;;102.40;2124.80;;;;;;5074116;28;20046;-84
2021/03/26 01:38:25;;;;;;;15.23;10.15;;;102.40;2124.80;;;;;;5074808;28;20026;-83
2021/03/26 01:40:58;;;;;;;16.05;10.23;;;102.40;2124.80;;;;;;5075055;28;20020;-75
2021/03/26 01:43:35;;;;;;;15.32;10.32;;;102.40;2099.20;;;;;;5077164;28;20021;-81
2021/03/26 01:46:02;;;;;;;15.15;10.63;;;102.40;2099.20;;;;;;5074234;28;20496;-78
2021/03/26 01:48:33;;;;;;;15.65;10.45;;;102.40;2150.40;;;;;;5074441;28;20470;-68
2021/03/26 01:51:01;;;;;;;15.05;10.63;;;77.70;2124.80;;;;;;5052312;28;20451;-72
2021/03/26 01:53:27;;;;;;;17.60;11.07;;;77.70;2150.40;;;;;;5055588;28;20115;-68
2021/03/26 01:55:56;;;;;;;18.52;11.18;;;77.70;2150.40;;;;;;5074436;28;20025;-69
2021/03/26 01:58:28;;;;;;;21.10;12.05;;;77.70;2150.40;;;;;;5073916;28;20029;-84
2021/03/26 02:01:05;;;;;;;19.13;11.30;;;77.70;2150.40;;;;;;5074334;28;20017;-84
2021/03/26 02:03:39;;;;;;;21.60;11.60;;;77.70;2150.40;;;;;;5073446;28;20103;-70
2021/03/26 02:06:15;;;;;;;20.15;11.90;;;77.60;2176.00;;;;;;5073956;28;20025;-84
2021/03/26 02:08:41;;;;;;;17.67;10.57;;;77.60;2201.60;;;;;;5073272;28;20029;-85
2021/03/26 02:11:34;;;;;;;18.48;11.30;;;77.60;2201.60;;;;;;5074486;28;20105;-70
2021/03/26 02:14:04;;;;;;;17.50;10.50;;;77.60;2176.00;;;;;;5077269;28;20154;-69
2021/03/26 02:16:30;;;;;;;19.23;11.23;;;77.60;2176.00;;;;;;5055371;28;20036;-69
2021/03/26 02:18:56;;;;;;;18.60;10.38;;;77.60;2176.00;;;;;;5073738;28;20405;-73
2021/03/26 02:21:26;;;;;;;14.80;10.15;;;77.60;2150.40;;;;;;5055810;28;20024;-76
2021/03/26 02:23:53;;;;;;;14.60;10.13;;;77.60;2176.00;;;;;;5073099;28;20024;-82
2021/03/26 02:26:43;;;;;;;18.35;11.35;;;77.60;2150.40;;;;;;5087257;28;20028;-69
2021/03/26 02:29:34;;;;;;;17.67;10.80;;;77.60;2176.00;;;;;;5073856;28;20071;-71
2021/03/26 02:32:03;;;;;;;18.95;11.95;;;77.50;2124.80;;;;;;5073763;28;20378;-70
2021/03/26 02:34:29;;;;;;;20.27;11.82;;;77.50;2150.40;;;;;;5072872;28;20029;-71
2021/03/26 02:37:13;;;;;;;17.63;11.68;;;77.50;2201.60;;;;;;5074274;28;20489;-68
2021/03/26 02:39:46;;;;;;;19.63;12.43;;;77.40;2201.60;;;;;;5071367;28;20043;-83
2021/03/26 02:42:32;;;;;;;17.35;11.65;;;77.40;2201.60;;;;;;5073351;28;20051;-69
2021/03/26 02:45:10;;;;;;;17.95;11.48;;;77.40;2227.20;;;;;;5073669;28;20017;-85
2021/03/26 02:47:45;;;;;;;20.38;12.45;;;77.40;2176.00;;;;;;5079390;28;20028;-85
2021/03/26 02:50:35;;;;;;;16.75;11.30;;;77.40;2227.20;;;;;;5055505;28;20539;-70
2021/03/26 02:53:13;;;;;;;15.98;11.10;;;77.40;2201.60;;;;;;5072020;28;20028;-86
2021/03/26 02:55:50;;;;;;;15.55;10.70;;;77.40;2201.60;;;;;;5074615;28;20051;-70
2021/03/26 02:58:21;;;;;;;20.17;11.50;;;77.40;2227.20;;;;;;5075809;28;20025;-69
2021/03/26 03:01:16;;;;;;;15.50;10.00;;;77.30;2227.20;;;;;;5074040;28;20074;-83
2021/03/26 03:03:44;;;;;;;16.52;10.30;;;77.40;2227.20;;;;;;5072555;28;20055;-68
2021/03/26 03:06:21;;;;;;;13.95;9.30;;;77.40;2201.60;;;;;;5072574;28;20175;-84
2021/03/26 03:08:49;;;;;;;17.80;10.60;;;77.40;2227.20;;;;;;5082036;28;20044;-83
2021/03/26 03:11:23;;;;;;;17.77;11.27;;;77.40;2201.60;;;;;;5076037;28;20028;-84
2021/03/26 03:13:57;;;;;;;17.85;12.10;;;77.30;2227.20;;;;;;5074422;28;20036;-83
2021/03/26 03:16:31;;;;;;;21.05;11.25;;;77.30;2201.60;;;;;;5058506;28;20020;-77
2021/03/26 03:19:25;;;;;;;19.25;11.00;;;77.40;2201.60;;;;;;5076655;28;20041;-81
2021/03/26 03:21:57;;;;;;;16.83;11.13;;;77.40;2201.60;;;;;;5055829;28;20040;-69
2021/03/26 03:24:43;;;;;;;14.48;10.23;;;77.30;2227.20;;;;;;5072465;28;20525;-69
2021/03/26 03:27:41;;;;;;;15.68;9.77;;;77.30;2227.20;;;;;;5072849;28;20490;-70
2021/03/26 03:30:13;;;;;;;15.02;9.80;;;77.40;2201.60;;;;;;5070017;28;20037;-69
2021/03/26 03:32:44;;;;;;;15.55;10.35;;;77.40;2201.60;;;;;;5071062;28;20031;-81
2021/03/26 03:35:30;;;;;;;16.30;10.20;;;77.30;2176.00;;;;;;5072357;28;20109;-70
2021/03/26 03:38:33;;;;;;;17.30;10.85;;;77.30;2150.40;;;;;;5044950;28;20028;-70
2021/03/26 03:41:02;;;;;;;15.32;10.10;;;77.30;2176.00;;;;;;5054190;28;20375;-72
2021/03/26 03:43:52;;;;;;;53.15;26.00;;;77.30;2227.20;;;;;;5072552;28;20107;-69
2021/03/26 03:46:34;;;;;;;57.67;26.95;;;77.30;2201.60;;;;;;5072449;28;20085;-74
2021/03/26 03:49:17;;;;;;;40.85;20.42;;;77.20;2201.60;;;;;;5072767;28;20043;-70
2021/03/26 03:52:10;;;;;;;29.58;16.13;;;77.20;2227.20;;;;;;5068844;28;20017;-69
2021/03/26 03:54:52;;;;;;;26.42;15.50;;;77.20;2227.20;;;;;;5071300;28;20028;-80
2021/03/26 03:57:26;;;;;;;35.45;17.50;;;77.20;2227.20;;;;;;5071059;28;20541;-70
2021/03/26 03:59:56;;;;;;;;;;;77.30;2201.60;;;;;;5054606;28;20029;-79
2021/03/26 04:02:51;;;;;;;18.38;11.02;;;77.40;2150.40;;;;;;5069016;28;19951;-77
2021/03/26 04:05:37;;;;;;;17.80;10.32;;;77.60;2073.60;;;;;;5024107;28;20490;-81
2021/03/26 04:08:11;;;;;;;18.48;10.77;;;77.70;2048.00;;;;;;5016647;28;20033;-76
2021/03/26 04:10:40;;;;;;;17.85;10.48;;;102.40;2022.40;;;;;;5016129;28;20042;-70
2021/03/26 04:13:11;;;;;;;18.52;10.98;;;102.50;2073.60;;;;;;5029357;28;20026;-70
2021/03/26 04:15:45;;;;;;;17.00;10.48;;;102.40;2048.00;;;;;;5028510;28;20119;-75
2021/03/26 04:18:23;;;;;;;17.88;11.57;;;102.50;2048.00;;;;;;5025113;28;20029;-70
2021/03/26 04:20:58;;;;;;;19.35;10.43;;;102.40;2048.00;;;;;;5027460;28;20030;-84
2021/03/26 04:23:33;;;;;;;16.38;10.15;;;102.50;2022.40;;;;;;5026516;28;20049;-69
2021/03/26 04:26:23;;;;;;;21.52;11.38;;;102.50;2048.00;;;;;;5031854;28;20030;-75
2021/03/26 04:29:20;;;;;;;17.20;11.73;;;102.50;2048.00;;;;;;5034927;28;20092;-86
2021/03/26 04:31:56;;;;;;;16.33;10.35;;;102.50;2022.40;;;;;;4970853;28;20519;-69
2021/03/26 04:34:22;;;;;;;17.80;10.77;;;102.60;2022.40;;;;;;4974691;28;20030;-69
2021/03/26 04:37:26;;;;;;;16.58;10.88;;;102.60;1996.80;;;;;;4972939;28;20039;-85
2021/03/26 04:40:11;;;;;;;17.60;10.48;;;102.60;2048.00;;;;;;4972385;28;20183;-86
2021/03/26 04:42:59;;;;;;;17.70;10.93;;;102.60;1996.80;;;;;;4998000;28;20057;-70
2021/03/26 04:45:30;;;;;;;16.48;10.50;;;102.70;1971.20;;;;;;5014657;28;20458;-70
2021/03/26 04:48:14;;;;;;;21.08;11.48;;;102.60;1996.80;;;;;;5016508;28;20144;-85
2021/03/26 04:51:14;;;;;;;22.02;11.68;;;102.60;2022.40;;;;;;5015600;28;20041;-82
2021/03/26 04:53:49;;;;;;;19.33;12.40;;;102.70;2048.00;;;;;;5015579;28;20022;-73
2021/03/26 04:56:22;;;;;;;19.65;13.70;;;102.70;2022.40;;;;;;5020005;28;20105;-71
2021/03/26 04:58:53;;;;;;;17.75;12.45;;;102.70;2022.40;;;;;;5013415;28;20034;-86
2021/03/26 05:01:19;;;;;;;20.75;12.23;;;102.90;1996.80;;;;;;4997527;28;20033;-69
2021/03/26 05:04:05;;;;;;;19.40;12.05;;;128.00;1945.60;;;;;;5013422;28;20480;-80
2021/03/26 05:06:36;;;;;;;17.60;11.02;;;128.40;1996.80;;;;;;5022852;28;20033;-70
2021/03/26 05:09:09;;;;;;;16.08;10.18;;;;;;;;;;5052505;28;20057;-70
2021/03/26 05:11:41;;;;;;;15.80;11.02;;;154.20;1766.40;;;;;;5056650;28;20025;-74
2021/03/26 05:14:32;;;;;;;16.70;10.93;;;179.30;1766.40;;;;;;5078719;28;20158;-74
2021/03/26 05:17:07;;;;;;;16.45;10.07;;;179.80;1715.20;;;;;;5070025;28;20028;-75
2021/03/26 05:19:51;;;;;;;16.95;9.63;;;205.00;1638.40;;;;;;5074549;28;20393;-81
2021/03/26 05:22:42;;;;;;;23.67;11.73;;;205.60;1536.00;;;;;;5074261;28;20024;-69
2021/03/26 05:25:23;;;;;;;15.85;11.13;;;230.60;1561.60;;;;;;5072945;28;20439;-86
2021/03/26 05:27:49;;;;;;;23.40;11.85;;;231.20;1510.40;;;;;;5073824;28;20063;-82
2021/03/26 05:30:28;;;;;;;20.90;11.13;;;256.60;1408.00;;;;;;5074229;28;20016;-70
2021/03/26 05:33:06;;;;;;;22.17;12.27;;;281.70;1356.80;;;;;;5073501;28;20036;-83
2021/03/26 05:35:58;;;;;;;31.17;17.67;;;282.20;1356.80;;;;;;5072797;28;20078;-83
2021/03/26 05:38:55;;;;;;;38.15;21.10;;;307.30;1356.80;;;;;;5071944;28;20040;-71
2021/03/26 05:42:05;;;;;;;47.65;26.75;;;307.90;1305.60;;;;;;5069484;28;20091;-82
2021/03/26 05:44:43;;;;;;;58.78;25.30;;;;;;;;;;4974398;28;20045;-85
2021/03/26 05:47:30;;;;;;;32.75;15.13;;;;;;;;;;4991565;28;20041;-75
2021/03/26 05:50:15;;;;;;;28.27;14.80;;;;;;;;;;4991614;28;20603;-82
2021/03/26 05:52:50;;;;;;;23.65;13.55;;;;;;;;;;4989554;28;20100;-73
2021/03/26 05:55:25;;;;;;;24.50;12.57;;;;;;;;;;4991275;28;20045;-66
2021/03/26 05:58:10;;;;;;;25.70;13.93;;;;;;;;;;4993442;28;21715;-67
2021/03/26 06:00:41;;;;;;;30.25;16.98;;;;;;;;;;4988372;28;20041;-72
2021/03/26 06:03:10;;;;;;;24.30;17.15;;;;;;;;;;4991207;28;20038;-74
2021/03/26 06:05:36;;;;;;;24.90;15.35;;;;;;;;;;4992180;28;20555;-79
2021/03/26 06:08:28;;;;;;;25.48;15.38;;;;;;;;;;4989684;28;20038;-66
2021/03/26 06:11:30;;;;;;;23.42;14.07;;;;;;;;;;4976534;28;20042;-75
2021/03/26 06:14:13;;;;;;;19.42;13.20;;;;;;;;;;4914674;29;20486;-66
2021/03/26 06:16:58;;;;;;;20.73;12.18;;;;;;;;;;4915583;29;20036;-71
2021/03/26 06:19:37;;;;;;;33.03;13.43;;;;;;;;;;4915577;29;20042;-66
2021/03/26 06:22:21;;;;;;;24.17;12.70;;;;;;;;;;4982587;28;20035;-68
2021/03/26 06:24:47;;;;;;;25.63;13.70;;;;;;;;;;4986704;28;20034;-75
2021/03/26 06:27:13;;;;;;;23.42;13.75;;;;;;;;;;4991914;28;20046;-70
2021/03/26 06:29:39;;;;;;;35.30;20.67;;;;;;;;;;4991499;28;20057;-82
2021/03/26 06:32:08;;;;;;;26.05;15.88;;;;;;;;;;4982474;28;20162;-82
2021/03/26 06:34:40;;;;;;;29.85;16.65;;;;;;;;;;4985530;28;20062;-68
2021/03/26 06:37:24;;;;;;;27.58;15.10;;;;;;;;;;4998075;28;20030;-68
2021/03/26 06:40:09;;;;;;;34.88;16.35;;;;;;;;;;4991465;28;20392;-75
2021/03/26 06:42:53;;;;;;;39.33;23.48;;;;;;;;;;4990510;28;20053;-74
2021/03/26 06:45:28;;;;;;;36.50;19.17;;;;;;;;;;4986891;28;20404;-74
2021/03/26 06:48:14;;;;;;;29.60;17.42;;;;;;;;;;5021978;28;20094;-74
2021/03/26 06:50:43;;;;;;;36.00;18.15;;;;;;;;;;5071267;28;20021;-72
2021/03/26 06:53:19;;;;;;;28.65;17.95;;;;;;;;;;5072985;28;20485;-72
2021/03/26 06:55:54;;;;;;;37.03;19.42;;;;;;;;;;5082465;28;20028;-77
2021/03/26 06:58:29;;;;;;;37.25;23.95;;;;;;;;;;5055896;28;20041;-73
2021/03/26 07:01:07;;;;;;;31.38;22.88;;;;;;;;;;5066722;28;20055;-73
2021/03/26 07:03:46;;;;;;;48.63;29.05;;;;;;;;;;5073008;28;20047;-73
2021/03/26 07:06:30;;;;;;;47.53;27.60;;;;;;;;;;5069273;28;20105;-73
2021/03/26 07:08:56;;;;;;;39.08;25.33;;;;;;;;;;5071742;28;20044;-79
2021/03/26 07:11:28;;;;;;;30.95;18.73;;;;;;;;;;5072343;28;20429;-74
2021/03/26 07:14:03;;;;;;;24.63;16.60;;;;;;;;;;5073492;28;20553;-73
2021/03/26 07:16:29;;;;;;;24.42;13.95;;;;;;;;;;5071317;28;20047;-72
2021/03/26 07:19:13;;;;;;;27.40;17.15;;;;;;;;;;5073070;28;20034;-72
2021/03/26 07:21:45;;;;;;;28.15;15.57;;;;;;;;;;5052839;28;20027;-75
2021/03/26 07:24:25;;;;;;;25.83;15.70;;;;;;;;;;5054577;28;20036;-73
2021/03/26 07:26:51;;;;;;;23.90;17.35;;;;;;;;;;5070528;28;20036;-75
2021/03/26 07:29:30;;;;;;;22.23;16.42;;;;;;;;;;5070267;28;20036;-72
2021/03/26 07:32:15;;;;;;;25.33;15.60;;;;;;;;;;5070738;28;20020;-76
2021/03/26 07:34:53;;;;;;;30.77;17.45;;;;;;;;;;5056708;28;20496;-75
2021/03/26 07:37:23;;;;;;;18.42;13.73;;;;;;;;;;5070318;28;20029;-73
2021/03/26 07:40:08;;;;;;;19.63;13.85;;;;;;;;;;5071576;28;20028;-74
2021/03/26 07:42:37;;;;;;;22.17;14.23;;;;;;;;;;5070638;28;20439;-75
2021/03/26 07:45:03;;;;;;;17.98;13.95;;;;;;;;;;5071145;28;20016;-74
2021/03/26 07:47:48;;;;;;;19.92;14.63;;;;;;;;;;5061780;28;20449;-73
2021/03/26 07:50:23;;;;;;;25.73;15.13;;;;;;;;;;5053006;28;20440;-75
2021/03/26 07:52:52;;;;;;;21.20;15.13;;;;;;;;;;5070964;28;20032;-73
2021/03/26 07:55:28;;;;;;;20.98;15.13;;;;;;;;;;5071321;28;20021;-74
2021/03/26 07:57:54;;;;;;;31.15;16.40;;;;;;;;;;5071054;28;20025;-74
2021/03/26 08:00:32;;;;;;;26.48;18.45;;;;;;;;;;5052215;28;20401;-73
2021/03/26 08:03:06;;;;;;;33.95;19.80;;;;;;;;;;5071386;28;20024;-72
2021/03/26 08:05:42;;;;;;;29.10;18.27;;;;;;;;;;5069565;28;20516;-76
2021/03/26 08:08:27;;;;;;;25.20;17.05;;;;;;;;;;5076440;28;20020;-74
2021/03/26 08:11:05;;;;;;;25.70;16.23;;;;;;;;;;5069995;28;20095;-74
2021/03/26 08:13:52;;;;;;;22.35;16.08;;;537.70;716.80;;;;;;5068658;28;20031;-76
2021/03/26 08:16:43;;;;;;;23.42;15.38;;;512.50;742.40;;;;;;5068336;28;20486;-74
2021/03/26 08:19:39;;;;;;;19.20;14.65;;;512.10;742.40;;;;;;5066766;28;20031;-74
2021/03/26 08:22:22;;;;;;;23.13;14.40;;;486.40;768.00;;;;;;4984479;28;20071;-77
2021/03/26 08:24:48;;;;;;;20.38;11.95;;;486.60;819.20;;;;;;4987537;28;20050;-79
2021/03/26 08:27:51;;;;;;;18.90;12.93;;;461.70;768.00;;;;;;4983258;28;20073;-74
2021/03/26 08:30:30;;;;;;;15.70;12.35;;;461.20;819.20;;;;;;4917677;29;20044;-74
2021/03/26 08:33:34;;;;;;;17.80;12.00;;;435.60;947.20;;;;;;4933591;29;20063;-74
2021/03/26 08:36:19;;;;;;;19.42;13.02;;;410.30;844.80;;;;;;4934327;28;20046;-74
2021/03/26 08:38:53;;;;;;;18.05;12.32;;;410.00;870.40;;;;;;4956655;28;20062;-73
2021/03/26 08:41:27;;;;;;;19.92;12.73;;;410.10;921.60;;;;;;4958527;28;20042;-74
2021/03/26 08:43:55;;;;;;;21.85;12.25;;;410.30;896.00;;;;;;4957998;28;20035;-75
2021/03/26 08:49:03;;;;;;;18.95;12.43;;;410.20;921.60;;;;;;5083583;23;20408;-73
2021/03/26 08:51:57;;;;;;;16.60;12.23;;;410.30;921.60;;;;;;5058601;28;20021;-78
2021/03/26 08:54:41;;;;;;;17.80;11.77;;;410.50;896.00;;;;;;5070730;28;20063;-74
2021/03/26 08:57:31;;;;;;;20.70;13.98;;;410.40;896.00;;;;;;5068696;28;20359;-73
2021/03/26 09:00:16;;;;;;;20.73;12.02;;;410.30;896.00;;;;;;5067174;28;20036;-72
2021/03/26 09:03:12;;;;;;;20.80;13.43;;;410.00;896.00;;;;;;5056963;28;20378;-74
2021/03/26 09:05:57;;;;;;;20.80;13.38;;;409.90;921.60;;;;;;5065526;28;20032;-73
2021/03/26 09:08:29;;;;;;;20.48;12.88;;;384.80;921.60;;;;;;5061743;28;20033;-72
2021/03/26 09:11:33;;;;;;;17.50;13.15;;;384.70;921.60;;;;;;5057278;28;20024;-73
2021/03/26 09:14:22;;;;;;;18.63;12.75;;;384.60;947.20;;;;;;5045416;28;20028;-72
2021/03/26 09:16:59;;;;;;;22.63;13.07;;;384.50;947.20;;;;;;5066271;28;20055;-73
2021/03/26 09:19:34;;;;;;;19.13;13.85;;;384.60;998.40;;;;;;5069988;28;20520;-74
2021/03/26 09:22:15;;;;;;;19.52;13.73;;;384.40;972.80;;;;;;5069417;28;20021;-71
2021/03/26 09:25:05;;;;;;;20.02;14.35;;;384.20;947.20;;;;;;5069178;28;20024;-78
2021/03/26 09:27:37;;;;;;;25.48;15.45;;;384.20;1203.20;;;;;;5052418;28;20029;-72
2021/03/26 09:30:11;;;;;;;23.10;14.88;;;359.30;1024.00;;;;;;5070318;28;20043;-74
2021/03/26 09:32:50;;;;;;;20.73;14.32;;;359.20;998.40;;;;;;5064607;28;20016;-73
2021/03/26 09:35:19;;;;;;;24.67;14.68;;;359.20;1049.60;;;;;;5070993;28;20040;-73
2021/03/26 09:38:17;;;;;;;20.83;13.32;;;359.00;1049.60;;;;;;5073510;28;20036;-76
2021/03/26 09:40:53;;;;;;;20.05;13.45;;;358.80;1024.00;;;;;;5081516;28;20043;-72
2021/03/26 09:43:33;;;;;;;20.25;13.70;;;358.80;1024.00;;;;;;5073652;28;20012;-75
2021/03/26 09:45:59;;;;;;;17.55;12.80;;;358.70;1049.60;;;;;;5080284;28;20056;-73
2021/03/26 09:48:52;;;;;;;19.23;12.88;;;358.70;1024.00;;;;;;5065047;28;20180;-78
2021/03/26 09:51:39;;;;;;;22.70;13.05;;;358.80;1024.00;;;;;;5064224;28;20025;-81
2021/03/26 09:54:15;;;;;;;19.73;13.32;;;358.60;1024.00;;;;;;5068978;28;20103;-81
2021/03/26 09:56:49;;;;;;;21.90;13.82;;;358.70;1024.00;;;;;;5065474;28;20064;-78
2021/03/26 09:59:34;;;;;;;18.73;13.32;;;358.70;972.80;;;;;;5064681;28;20387;-80
2021/03/26 10:02:10;;;;;;;20.48;14.00;;;358.60;1049.60;;;;;;5071311;28;20020;-78
2021/03/26 10:04:44;;;;;;;18.88;12.80;;;358.60;1024.00;;;;;;5068414;28;20045;-79
2021/03/26 10:07:29;;;;;;;24.35;14.10;;;358.70;1024.00;;;;;;5064389;28;20086;-77
2021/03/26 10:11:07;;;;;;;23.27;13.85;;;358.70;1049.60;;;;;;5057593;28;20040;-79
2021/03/26 10:13:02;;;;;;;22.50;14.02;;;358.70;998.40;;;;;;5049514;28;20524;-83
2021/03/26 10:15:39;;;;;;;18.42;13.35;;;358.60;998.40;;;;;;5070193;28;20060;-77
2021/03/26 10:18:25;;;;;;;21.30;13.75;;;358.50;998.40;;;;;;5069217;28;20032;-74
2021/03/26 10:20:59;;;;;;;18.05;12.82;;;358.60;1075.20;;;;;;5060825;28;20493;-74
2021/03/26 10:23:55;;;;;;;19.88;12.77;;;358.60;1024.00;;;;;;5060054;28;20016;-72
2021/03/26 10:26:34;;;;;;;21.50;12.50;;;358.50;998.40;;;;;;5075225;28;20020;-79
2021/03/26 10:29:14;;;;;;;24.15;12.38;;;333.60;998.40;;;;;;5061455;28;20033;-74
2021/03/26 10:31:43;;;;;;;25.02;12.88;;;333.60;1075.20;;;;;;5066712;28;20032;-73
2021/03/26 10:34:12;;;;;;;18.35;12.82;;;333.50;1049.60;;;;;;5078497;28;20161;-73
2021/03/26 10:36:53;;;;;;;19.25;12.95;;;333.30;1024.00;;;;;;5064437;28;20013;-77
2021/03/26 10:39:46;;;;;;;21.63;13.35;;;333.30;1024.00;;;;;;5079154;28;20047;-76
2021/03/26 10:42:17;;;;;;;20.20;13.55;;;;;;;;;;5053934;28;20036;-72
2021/03/26 10:45:20;;;;;;;20.73;14.15;;;333.50;1075.20;;;;;;5069033;28;20351;-73
2021/03/26 10:47:55;;;;;;;23.48;13.10;;;333.30;1049.60;;;;;;5072373;28;20100;-73
2021/03/26 10:50:48;;;;;;;19.63;12.70;;;333.30;1100.80;;;;;;5083389;28;20067;-84
2021/03/26 10:53:21;;;;;;;22.02;13.65;;;333.40;1075.20;;;;;;4990800;28;20074;-85
2021/03/26 10:56:09;;;;;;;20.00;13.20;;;333.30;1075.20;;;;;;5007186;28;20039;-84
2021/03/26 10:58:39;;;;;;;24.35;16.05;;;333.50;1075.20;;;;;;4996627;28;20128;-74
2021/03/26 11:01:24;;;;;;;22.35;15.55;;;333.30;1075.20;;;;;;5000201;28;20033;-79
2021/03/26 11:04:19;;;;;;;26.92;15.80;;;332.80;1075.20;;;;;;5004722;28;20093;-86
2021/03/26 11:06:52;;;;;;;23.02;14.50;;;333.40;1075.20;;;;;;4972679;28;20186;-86
2021/03/26 11:09:28;;;;;;;22.08;14.70;;;333.50;1075.20;;;;;;4991933;28;20517;-87
2021/03/26 11:12:12;;;;;;;21.70;15.18;;;333.40;1024.00;;;;;;4990580;28;20069;-75
2021/03/26 11:14:53;;;;;;;24.50;15.18;;;333.20;1075.20;;;;;;4984322;28;20026;-74
2021/03/26 11:20:22;;;;;;;23.30;15.50;;;333.40;1075.20;;;;;;5007548;23;20057;-79
2021/03/26 11:23:24;;;;;;;23.83;15.18;;;333.40;1049.60;;;;;;5007315;28;20049;-80
2021/03/26 11:25:54;;;;;;;23.00;16.17;;;333.40;1075.20;;;;;;4996492;28;20036;-83
2021/03/26 11:28:27;;;;;;;20.90;14.63;;;333.40;1049.60;;;;;;4994331;28;20514;-82
2021/03/26 11:31:19;;;;;;;21.00;14.80;;;333.40;1049.60;;;;;;5002130;28;20057;-83
2021/03/26 11:33:55;;;;;;;26.67;15.02;;;333.50;1049.60;;;;;;5011387;28;20487;-86
2021/03/26 11:36:46;;;;;;;22.10;15.63;;;333.70;1100.80;;;;;;5011815;28;20052;-73
2021/03/26 11:39:12;;;;;;;23.10;16.05;;;333.70;1049.60;;;;;;5005190;28;20037;-76
2021/03/26 11:41:46;;;;;;;23.30;15.43;;;333.70;1049.60;;;;;;5012164;28;20026;-76
2021/03/26 11:44:15;;;;;;;22.13;16.50;;;333.70;1049.60;;;;;;5012271;28;20029;-79
2021/03/26 11:46:50;;;;;;;25.42;15.98;;;333.70;1100.80;;;;;;5014453;28;20029;-75
2021/03/26 11:49:27;;;;;;;24.40;15.23;;;333.70;1049.60;;;;;;5005214;28;20092;-82
2021/03/26 11:52:03;;;;;;;21.13;15.25;;;358.40;1075.20;;;;;;4994189;28;20108;-82
2021/03/26 11:54:59;;;;;;;22.05;15.27;;;358.40;1049.60;;;;;;4993790;28;20490;-77
2021/03/26 11:57:44;;;;;;;24.90;16.15;;;358.40;1049.60;;;;;;5012700;28;20030;-79
2021/03/26 12:00:18;;;;;;;23.33;16.50;;;358.50;1075.20;;;;;;4999889;28;20091;-80
2021/03/26 12:02:43;;;;;;;22.67;15.27;;;358.40;1049.60;;;;;;5011464;28;20041;-76
2021/03/26 12:05:26;;;;;;;22.83;15.95;;;333.60;1075.20;;;;;;5014531;28;20022;-75
2021/03/26 12:08:09;;;;;;;28.90;17.23;;;333.50;1024.00;;;;;;4980605;28;20057;-71
2021/03/26 12:11:01;;;;;;;21.77;15.30;;;333.40;1049.60;;;;;;5009582;28;20080;-70
2021/03/26 12:13:38;;;;;;;28.98;16.50;;;333.30;1049.60;;;;;;5011336;28;20034;-74
2021/03/26 12:16:18;;;;;;;24.30;17.55;;;333.30;1049.60;;;;;;5003670;28;20042;-73
2021/03/26 12:18:57;;;;;;;25.65;16.88;;;333.30;1100.80;;;;;;5013625;28;20044;-73
2021/03/26 12:21:29;;;;;;;23.23;17.35;;;333.40;1100.80;;;;;;5019865;28;20030;-79
2021/03/26 12:24:01;;;;;;;25.45;16.10;;;333.50;1075.20;;;;;;5014187;28;20479;-78
2021/03/26 12:26:50;;;;;;;22.48;15.77;;;333.50;1049.60;;;;;;5023522;28;20017;-76
2021/03/26 12:29:22;;;;;;;22.00;15.30;;;333.60;1075.20;;;;;;4951147;29;20058;-80
2021/03/26 12:31:54;;;;;;;24.38;15.90;;;333.70;1100.80;;;;;;4951733;29;20552;-75
2021/03/26 12:34:43;;;;;;;25.42;17.20;;;333.60;1049.60;;;;;;4951147;29;20051;-76
2021/03/26 12:37:14;;;;;;;27.50;18.15;;;333.70;1075.20;;;;;;4945219;28;20386;-77
2021/03/26 12:39:44;;;;;;;28.60;18.30;;;333.60;1049.60;;;;;;4941952;29;20031;-74
2021/03/26 12:42:12;;;;;;;24.38;17.63;;;333.60;1049.60;;;;;;4948814;29;20055;-76
2021/03/26 12:44:44;;;;;;;31.90;18.02;;;333.70;1049.60;;;;;;4940119;29;20157;-78
2021/03/26 12:47:19;;;;;;;28.52;17.77;;;333.70;1075.20;;;;;;4945262;29;20044;-79
2021/03/26 12:50:11;;;;;;;28.33;18.17;;;333.60;1075.20;;;;;;4945011;29;20050;-74
2021/03/26 12:53:01;;;;;;;26.67;17.10;;;333.60;1075.20;;;;;;4955374;29;20492;-75
2021/03/26 12:55:33;;;;;;;26.02;17.58;;;333.70;1075.20;;;;;;4955494;28;20094;-71
2021/03/26 12:58:36;;;;;;;43.58;18.35;;;333.70;1049.60;;;;;;4943507;28;20095;-71
2021/03/26 13:01:06;;;;;;;25.00;17.60;;;333.70;1049.60;;;;;;4949179;28;20035;-79
2021/03/26 13:03:51;;;;;;;26.73;17.65;;;333.70;1049.60;;;;;;4943487;29;20036;-88
2021/03/26 13:06:24;;;;;;;25.77;18.25;;;333.70;1049.60;;;;;;4986919;28;20040;-87
2021/03/26 13:08:56;;;;;;;27.23;18.83;;;333.70;1075.20;;;;;;5024183;28;20034;-87
2021/03/26 13:11:38;;;;;;;25.75;18.13;;;333.70;1049.60;;;;;;5031011;28;20033;-78
2021/03/26 13:14:19;;;;;;;26.35;18.58;;;333.70;1049.60;;;;;;5014579;28;20029;-79
2021/03/26 13:16:50;;;;;;;26.60;18.63;;;358.40;1075.20;;;;;;5026177;28;20025;-79
2021/03/26 13:19:19;;;;;;;27.95;17.88;;;358.40;1100.80;;;;;;5016061;28;20069;-75
2021/03/26 13:22:03;;;;;;;29.67;18.95;;;358.50;1075.20;;;;;;5029147;28;20026;-72